Time;durP1;ratioP1;P1;durP2;ratioP2;P2;SDS_P1;SDS_P2;PMS_P1;PMS_P2;Temp;Humidity;BMP_temperature;BMP_pressure;BME280_temperature;BME280_humidity;BME280_pressure;Samples;Min_cycle;Max_cycle;Signal;HPM_P1;HPM_P2
2021/06/01 00:00:25;;;;;;;9.80;6.70;;;18.40;87.90;;;;;;5070681;28;20103;-58
2021/06/01 00:02:50;;;;;;;11.40;6.45;;;18.20;89.40;;;;;;5070429;28;20032;-58
2021/06/01 00:05:16;;;;;;;10.70;6.95;;;18.20;90.20;;;;;;5070647;28;20032;-59
2021/06/01 00:07:42;;;;;;;11.45;7.18;;;18.30;89.50;;;;;;5070170;28;20111;-59
2021/06/01 00:10:09;;;;;;;11.07;7.28;;;18.20;90.60;;;;;;5070511;28;20508;-59
2021/06/01 00:12:35;;;;;;;11.52;7.03;;;18.20;91.10;;;;;;5070148;28;20032;-59
2021/06/01 00:15:00;;;;;;;9.75;6.85;;;18.20;91.30;;;;;;5070456;28;20047;-59
2021/06/01 00:17:26;;;;;;;12.75;6.93;;;18.30;91.00;;;;;;5070360;28;20025;-59
2021/06/01 00:19:53;;;;;;;10.43;7.28;;;18.30;91.10;;;;;;5070651;28;20124;-59
2021/06/01 00:22:19;;;;;;;10.10;6.85;;;18.30;91.20;;;;;;5070270;28;20026;-59
2021/06/01 00:24:45;;;;;;;13.30;7.68;;;18.40;91.00;;;;;;5070591;28;20028;-59
2021/06/01 00:27:11;;;;;;;11.07;7.80;;;18.40;91.10;;;;;;5070216;28;20440;-60
2021/06/01 00:29:36;;;;;;;12.55;7.13;;;18.20;91.90;;;;;;5070275;28;20029;-59
2021/06/01 00:32:02;;;;;;;13.25;7.15;;;18.10;93.00;;;;;;5070106;28;20564;-59
2021/06/01 00:34:28;;;;;;;11.57;8.05;;;18.10;93.00;;;;;;5070931;28;20080;-57
2021/06/01 00:36:53;;;;;;;10.35;7.25;;;18.10;93.10;;;;;;5073679;28;20469;-57
2021/06/01 00:39:19;;;;;;;11.20;7.28;;;18.00;93.70;;;;;;5073795;28;20036;-58
2021/06/01 00:41:45;;;;;;;11.15;7.25;;;17.80;96.20;;;;;;5073598;28;20588;-58
2021/06/01 00:44:10;;;;;;;10.98;7.80;;;17.80;96.30;;;;;;5072444;28;20393;-59
2021/06/01 00:46:36;;;;;;;13.25;7.40;;;17.80;96.20;;;;;;5073595;28;20139;-59
2021/06/01 00:49:02;;;;;;;10.07;7.80;;;17.80;96.40;;;;;;5073299;28;20020;-58
2021/06/01 00:51:30;;;;;;;9.23;7.05;;;17.60;98.10;;;;;;5073374;28;20055;-58
2021/06/01 00:53:56;;;;;;;16.42;7.78;;;17.50;98.80;;;;;;5072436;28;20017;-58
2021/06/01 00:56:22;;;;;;;9.88;7.82;;;17.50;99.40;;;;;;5073344;28;20025;-58
2021/06/01 00:58:48;;;;;;;12.95;8.05;;;17.40;99.90;;;;;;5073770;28;20099;-59
2021/06/01 01:01:20;;;;;;;11.38;7.95;;;17.30;99.90;;;;;;5073263;28;20162;-58
2021/06/01 01:03:47;;;;;;;12.40;8.48;;;17.20;99.90;;;;;;5073379;28;20104;-58
2021/06/01 01:06:36;;;;;;;12.25;8.25;;;17.20;99.90;;;;;;5072826;28;20473;-58
2021/06/01 01:09:09;;;;;;;11.02;8.00;;;17.10;99.90;;;;;;5071697;28;20032;-58
2021/06/01 01:11:52;;;;;;;12.27;7.88;;;16.90;99.90;;;;;;5072973;28;20449;-58
2021/06/01 01:14:29;;;;;;;11.63;8.88;;;16.80;99.90;;;;;;5073229;28;20024;-58
2021/06/01 01:17:05;;;;;;;12.43;8.35;;;16.90;99.90;;;;;;5073220;28;20059;-59
2021/06/01 01:19:49;;;;;;;13.30;8.15;;;17.10;99.90;;;;;;5073046;28;20029;-58
2021/06/01 01:22:16;;;;;;;10.45;7.55;;;17.20;99.90;;;;;;5072773;28;20023;-58
2021/06/01 01:24:57;;;;;;;14.30;7.75;;;17.20;99.90;;;;;;5073431;28;20441;-58
2021/06/01 01:27:50;;;;;;;11.63;7.97;;;17.10;99.90;;;;;;5072962;28;20131;-58
2021/06/01 01:30:18;;;;;;;13.65;8.68;;;16.90;99.90;;;;;;5073029;28;20463;-58
2021/06/01 01:32:58;;;;;;;11.02;8.23;;;16.90;99.90;;;;;;5072754;28;20481;-58
2021/06/01 01:35:26;;;;;;;12.10;8.77;;;16.80;99.90;;;;;;5071362;28;20475;-58
2021/06/01 01:37:54;;;;;;;12.50;9.15;;;16.60;99.90;;;;;;5072767;28;20052;-58
2021/06/01 01:40:25;;;;;;;12.65;8.98;;;16.40;99.90;;;;;;5073040;28;20024;-58
2021/06/01 01:42:54;;;;;;;12.85;8.82;;;16.30;99.90;;;;;;5072992;28;20030;-58
2021/06/01 01:45:29;;;;;;;12.80;8.90;;;16.20;99.90;;;;;;5072535;28;20453;-58
2021/06/01 01:50:46;;;;;;;13.20;9.57;;;16.00;99.90;;;;;;5072815;28;20048;-58
2021/06/01 01:53:19;;;;;;;11.60;8.88;;;16.20;99.90;;;;;;5072494;28;20362;-58
2021/06/01 01:55:48;;;;;;;16.40;9.60;;;16.10;99.90;;;;;;5072286;28;20092;-58
2021/06/01 01:58:16;;;;;;;11.63;9.38;;;16.10;99.90;;;;;;5072170;28;20035;-58
2021/06/01 02:00:43;;;;;;;12.15;9.50;;;16.00;99.90;;;;;;5072100;28;20024;-58
2021/06/01 02:03:09;;;;;;;12.20;8.80;;;16.00;99.90;;;;;;5072394;28;20139;-58
2021/06/01 02:05:36;;;;;;;12.60;9.75;;;15.90;99.90;;;;;;5072139;28;20113;-59
2021/06/01 02:08:02;;;;;;;12.32;9.65;;;15.90;99.90;;;;;;5070457;28;20496;-59
2021/06/01 02:10:28;;;;;;;10.88;9.23;;;15.90;99.90;;;;;;5072568;28;20105;-59
2021/06/01 02:12:53;;;;;;;14.95;9.85;;;15.80;99.90;;;;;;5071939;28;20381;-59
2021/06/01 02:15:19;;;;;;;12.38;8.65;;;15.80;99.90;;;;;;5071871;28;20024;-58
2021/06/01 02:17:45;;;;;;;19.33;10.20;;;15.70;99.90;;;;;;5071741;28;20442;-58
2021/06/01 02:20:11;;;;;;;13.90;8.90;;;15.70;99.90;;;;;;5071799;28;20020;-58
2021/06/01 02:25:39;;;;;;;17.10;10.18;;;15.70;99.90;;;;;;5072096;28;20039;-58
2021/06/01 02:28:20;;;;;;;15.73;9.85;;;15.80;99.90;;;;;;5071684;28;20566;-58
2021/06/01 02:31:01;;;;;;;15.50;9.43;;;15.80;99.90;;;;;;5071598;28;20028;-58
2021/06/01 02:33:30;;;;;;;15.25;9.82;;;15.80;99.90;;;;;;5071430;28;20036;-59
2021/06/01 02:36:02;;;;;;;12.30;9.32;;;15.80;99.90;;;;;;5070948;28;20495;-58
2021/06/01 02:38:33;;;;;;;12.48;9.30;;;15.80;99.90;;;;;;5071501;28;20028;-58
2021/06/01 02:41:03;;;;;;;13.13;9.75;;;15.80;99.90;;;;;;5071519;28;20063;-59
2021/06/01 02:43:30;;;;;;;14.18;9.13;;;15.80;99.90;;;;;;5071783;28;20032;-59
2021/06/01 02:45:56;;;;;;;12.40;9.40;;;15.80;99.90;;;;;;5071308;28;20439;-59
2021/06/01 02:48:22;;;;;;;14.68;9.70;;;15.80;99.90;;;;;;5071110;28;20031;-59
2021/06/01 02:50:52;;;;;;;15.13;10.18;;;15.80;99.90;;;;;;5071354;28;20493;-59
2021/06/01 02:53:18;;;;;;;14.82;9.50;;;15.70;99.90;;;;;;5071456;28;20055;-58
2021/06/01 02:55:44;;;;;;;11.93;9.88;;;15.70;99.90;;;;;;5071354;28;20046;-58
2021/06/01 02:58:11;;;;;;;14.25;9.52;;;15.70;99.90;;;;;;5070691;28;20481;-58
2021/06/01 03:00:38;;;;;;;15.27;10.07;;;15.60;99.90;;;;;;5071211;28;20028;-58
2021/06/01 03:03:09;;;;;;;14.73;11.07;;;15.60;99.90;;;;;;5071271;28;20032;-58
2021/06/01 03:05:35;;;;;;;13.10;10.27;;;15.50;99.90;;;;;;5071160;28;20032;-58
2021/06/01 03:08:20;;;;;;;20.70;10.32;;;15.40;99.90;;;;;;5070673;28;20036;-58
2021/06/01 03:10:45;;;;;;;14.43;9.95;;;15.40;99.90;;;;;;5070989;28;20154;-58
2021/06/01 03:13:11;;;;;;;14.05;10.57;;;15.40;99.90;;;;;;5070978;28;20504;-58
2021/06/01 03:15:37;;;;;;;16.48;9.73;;;15.30;99.90;;;;;;5071132;28;20108;-58
2021/06/01 03:18:02;;;;;;;17.05;10.40;;;15.30;99.90;;;;;;5071001;28;20051;-58
2021/06/01 03:20:28;;;;;;;14.55;10.88;;;15.10;99.90;;;;;;5071160;28;20377;-58
2021/06/01 03:22:54;;;;;;;13.50;10.82;;;15.10;99.90;;;;;;5071017;28;20107;-58
2021/06/01 03:25:19;;;;;;;16.25;11.52;;;15.20;99.90;;;;;;5070982;28;20384;-58
2021/06/01 03:27:47;;;;;;;17.42;10.73;;;15.20;99.90;;;;;;5070155;28;20099;-58
2021/06/01 03:30:13;;;;;;;13.98;10.45;;;15.20;99.90;;;;;;5070986;28;20380;-58
2021/06/01 03:32:39;;;;;;;15.02;10.68;;;15.00;99.90;;;;;;5070637;28;20374;-58
2021/06/01 03:35:06;;;;;;;14.65;10.93;;;14.90;99.90;;;;;;5070898;28;20527;-58
2021/06/01 03:37:32;;;;;;;18.58;11.18;;;14.80;99.90;;;;;;5069149;28;20028;-58
2021/06/01 03:39:57;;;;;;;17.63;11.30;;;14.70;99.90;;;;;;5070830;28;20035;-58
2021/06/01 03:42:23;;;;;;;14.05;10.73;;;14.60;99.90;;;;;;5070505;28;20051;-58
2021/06/01 03:44:49;;;;;;;19.20;11.50;;;14.60;99.90;;;;;;5070611;28;20054;-58
2021/06/01 03:47:14;;;;;;;15.75;11.55;;;14.60;99.90;;;;;;5070439;28;20044;-58
2021/06/01 03:49:40;;;;;;;17.40;11.35;;;14.50;99.90;;;;;;5070683;28;20028;-58
2021/06/01 03:52:07;;;;;;;20.42;11.18;;;14.30;99.90;;;;;;5070550;28;20029;-58
2021/06/01 03:54:38;;;;;;;19.05;11.00;;;14.30;99.90;;;;;;5070711;28;20377;-58
2021/06/01 03:57:05;;;;;;;14.55;11.30;;;14.30;99.90;;;;;;5071085;28;20056;-59
2021/06/01 03:59:30;;;;;;;17.35;11.88;;;14.30;99.90;;;;;;5070497;28;20054;-59
2021/06/01 04:01:56;;;;;;;15.82;11.65;;;14.40;99.90;;;;;;5070720;28;20116;-59
2021/06/01 04:04:22;;;;;;;18.95;11.75;;;14.50;99.90;;;;;;5070489;28;20110;-59
2021/06/01 04:06:47;;;;;;;16.23;11.82;;;14.50;99.90;;;;;;5070193;28;20335;-59
2021/06/01 04:09:13;;;;;;;17.70;11.68;;;14.50;99.90;;;;;;5071055;28;20090;-59
2021/06/01 04:11:39;;;;;;;19.67;11.20;;;14.40;99.90;;;;;;5074433;28;20020;-59
2021/06/01 04:14:08;;;;;;;18.02;11.10;;;14.50;99.90;;;;;;5074571;28;20033;-58
2021/06/01 04:16:34;;;;;;;25.75;12.57;;;14.50;99.90;;;;;;5074160;28;20029;-58
2021/06/01 04:18:59;;;;;;;23.77;11.30;;;14.50;99.90;;;;;;5074293;28;20031;-58
2021/06/01 04:21:25;;;;;;;17.75;10.98;;;14.50;99.90;;;;;;5074223;28;20469;-58
2021/06/01 04:23:50;;;;;;;17.13;10.82;;;14.50;99.90;;;;;;5074009;28;20435;-58
2021/06/01 04:26:16;;;;;;;24.58;11.45;;;14.40;99.90;;;;;;5074117;28;20051;-58
2021/06/01 04:28:42;;;;;;;14.73;10.60;;;14.50;99.90;;;;;;5073687;28;20048;-58
2021/06/01 04:31:08;;;;;;;23.67;11.48;;;14.50;99.90;;;;;;5072854;28;20324;-58
2021/06/01 04:33:33;;;;;;;20.10;10.68;;;14.60;99.90;;;;;;5074010;28;20021;-57
2021/06/01 04:35:59;;;;;;;19.38;11.55;;;14.60;99.90;;;;;;5073568;28;20033;-58
2021/06/01 04:38:25;;;;;;;18.58;10.70;;;14.70;99.90;;;;;;5073808;28;20028;-59
2021/06/01 04:40:51;;;;;;;13.40;10.13;;;14.70;99.90;;;;;;5073445;28;20021;-59
2021/06/01 04:43:17;;;;;;;17.73;10.77;;;14.70;99.90;;;;;;5073946;28;20036;-58
2021/06/01 04:45:42;;;;;;;16.35;10.63;;;14.80;99.90;;;;;;5073465;28;20438;-58
2021/06/01 04:48:08;;;;;;;20.00;10.75;;;14.90;99.90;;;;;;5073414;28;20555;-58
2021/06/01 04:50:34;;;;;;;16.52;10.52;;;14.90;99.90;;;;;;5073590;28;20377;-58
2021/06/01 04:52:59;;;;;;;19.95;10.63;;;14.90;99.90;;;;;;5073650;28;20052;-59
2021/06/01 04:55:25;;;;;;;17.05;10.50;;;15.10;99.90;;;;;;5073489;28;20071;-59
2021/06/01 04:57:51;;;;;;;21.02;10.77;;;15.30;99.90;;;;;;5073899;28;20028;-59
2021/06/01 05:00:17;;;;;;;17.67;9.80;;;15.50;99.90;;;;;;5073545;28;20031;-58
2021/06/01 05:02:42;;;;;;;14.90;10.32;;;15.50;99.90;;;;;;5073281;28;20024;-58
2021/06/01 05:05:09;;;;;;;16.92;8.65;;;15.60;99.90;;;;;;5073234;28;20043;-58
2021/06/01 05:07:34;;;;;;;15.00;8.52;;;15.70;99.90;;;;;;5073124;28;20028;-58
2021/06/01 05:10:01;;;;;;;11.18;7.57;;;15.90;99.90;;;;;;5073363;28;20044;-58
2021/06/01 05:12:27;;;;;;;10.98;8.65;;;16.10;99.90;;;;;;5073160;28;20040;-58
2021/06/01 05:14:53;;;;;;;12.65;8.77;;;16.20;99.90;;;;;;5071908;28;20037;-58
2021/06/01 05:17:19;;;;;;;60.30;14.43;;;16.40;99.90;;;;;;5072974;28;20040;-59
2021/06/01 05:19:44;;;;;;;15.07;8.48;;;16.30;99.90;;;;;;5072977;28;20465;-59
2021/06/01 05:22:12;;;;;;;12.27;8.18;;;16.20;99.90;;;;;;5072628;28;20050;-59
2021/06/01 05:24:37;;;;;;;16.13;8.70;;;16.30;99.90;;;;;;5073002;28;20028;-59
2021/06/01 05:27:03;;;;;;;11.52;7.20;;;16.50;99.90;;;;;;5072326;28;20036;-59
2021/06/01 05:29:30;;;;;;;11.15;7.75;;;16.70;99.90;;;;;;5072829;28;20028;-59
2021/06/01 05:34:57;;;;;;;17.67;8.25;;;16.70;99.90;;;;;;5064385;28;20469;-59
2021/06/01 05:37:26;;;;;;;9.90;6.78;;;16.60;99.90;;;;;;5072669;28;20025;-59
2021/06/01 05:39:52;;;;;;;11.25;7.25;;;16.60;99.90;;;;;;5072537;28;20525;-59
2021/06/01 05:42:18;;;;;;;7.93;7.00;;;16.70;99.90;;;;;;5072611;28;20124;-60
2021/06/01 05:44:46;;;;;;;14.07;7.47;;;16.70;99.90;;;;;;5069701;28;20461;-59
2021/06/01 05:47:12;;;;;;;11.88;7.15;;;16.80;99.90;;;;;;5072608;28;20082;-59
2021/06/01 05:49:37;;;;;;;10.38;6.80;;;16.90;99.90;;;;;;5071311;28;20024;-59
2021/06/01 05:52:03;;;;;;;12.30;6.68;;;16.90;99.90;;;;;;5066183;28;20024;-59
2021/06/01 05:54:29;;;;;;;12.13;6.47;;;17.00;99.90;;;;;;5065094;28;20032;-59
2021/06/01 05:56:54;;;;;;;12.07;6.15;;;17.10;99.90;;;;;;5066917;28;20052;-59
2021/06/01 05:59:20;;;;;;;10.57;6.68;;;17.10;99.90;;;;;;5072248;28;20021;-59
2021/06/01 06:01:46;;;;;;;10.73;6.50;;;17.40;99.90;;;;;;5071172;28;20021;-59
2021/06/01 06:04:11;;;;;;;10.82;5.95;;;17.40;99.90;;;;;;5068701;28;20048;-59
2021/06/01 06:06:37;;;;;;;10.65;6.55;;;17.60;99.90;;;;;;5060815;28;20468;-59
2021/06/01 06:09:03;;;;;;;10.35;6.03;;;17.70;99.90;;;;;;5062869;28;20036;-59
2021/06/01 06:11:29;;;;;;;10.43;6.07;;;17.60;99.90;;;;;;5020795;28;20638;-59
2021/06/01 06:13:54;;;;;;;12.43;6.30;;;17.80;99.90;;;;;;5050281;28;20024;-59
2021/06/01 06:16:20;;;;;;;11.68;5.63;;;18.10;99.90;;;;;;5054869;28;20030;-59
2021/06/01 06:18:57;;;;;;;16.50;5.68;;;18.30;99.90;;;;;;5059697;28;20054;-59
2021/06/01 06:21:23;;;;;;;7.68;5.57;;;18.40;99.90;;;;;;5054617;28;20040;-59
2021/06/01 06:23:49;;;;;;;9.40;5.20;;;18.50;99.90;;;;;;5067067;28;20503;-59
2021/06/01 06:26:15;;;;;;;9.02;4.95;;;18.50;99.90;;;;;;5062508;28;20068;-59
2021/06/01 06:28:41;;;;;;;7.55;4.13;;;18.50;99.90;;;;;;5068223;28;20040;-58
2021/06/01 06:31:06;;;;;;;7.88;4.47;;;18.50;99.80;;;;;;5057266;28;20021;-59
2021/06/01 06:33:33;;;;;;;5.03;4.10;;;18.60;99.90;;;;;;5057789;28;20083;-58
2021/06/01 06:35:59;;;;;;;8.23;3.80;;;18.70;99.10;;;;;;5060775;28;20703;-59
2021/06/01 06:38:25;;;;;;;9.05;3.78;;;18.70;98.40;;;;;;5051977;28;20043;-59
2021/06/01 06:41:03;;;;;;;5.22;3.58;;;19.00;96.10;;;;;;5059890;28;20029;-60
2021/06/01 06:43:36;;;;;;;8.27;3.60;;;20.30;92.90;;;;;;5057518;28;20024;-60
2021/06/01 06:46:02;;;;;;;;;;;21.60;86.10;;;;;;5051656;28;20401;-60
2021/06/01 06:48:28;;;;;;;4.45;3.17;;;22.90;77.60;;;;;;5043469;28;19923;-59
2021/06/01 06:50:54;;;;;;;4.90;3.55;;;24.20;67.00;;;;;;5053308;28;20021;-60
2021/06/01 06:53:19;;;;;;;6.45;3.20;;;25.10;59.80;;;;;;5056485;28;20129;-59
2021/06/01 06:55:45;;;;;;;4.28;2.60;;;25.50;57.70;;;;;;5052405;28;20575;-60
2021/06/01 06:58:10;;;;;;;3.85;2.60;;;25.10;56.90;;;;;;5057014;28;20436;-59
2021/06/01 07:00:36;;;;;;;5.60;3.17;;;24.60;56.60;;;;;;5047220;28;20036;-59
2021/06/01 07:03:02;;;;;;;4.97;2.70;;;24.80;57.50;;;;;;5059742;28;20499;-59
2021/06/01 07:05:27;;;;;;;4.65;2.75;;;25.10;55.10;;;;;;5066374;28;20041;-59
2021/06/01 07:07:55;;;;;;;5.15;2.50;;;24.80;53.60;;;;;;5057728;28;20028;-59
2021/06/01 07:10:21;;;;;;;3.47;2.60;;;25.00;52.60;;;;;;5048578;28;20468;-59
2021/06/01 07:12:47;;;;;;;4.20;2.50;;;25.00;52.00;;;;;;5071134;28;20017;-60
2021/06/01 07:15:40;;;;;;;3.30;2.50;;;25.00;52.40;;;;;;5055822;28;20051;-60
2021/06/01 07:18:06;;;;;;;5.25;2.40;;;25.20;50.60;;;;;;5055642;28;20045;-59
2021/06/01 07:20:33;;;;;;;2.30;2.10;;;25.30;49.80;;;;;;5021824;28;20501;-60
2021/06/01 07:23:00;;;;;;;4.38;2.25;;;24.70;50.00;;;;;;5065485;28;20236;-60
2021/06/01 07:25:26;;;;;;;4.45;2.30;;;25.10;50.30;;;;;;5049795;28;20033;-58
2021/06/01 07:27:51;;;;;;;5.65;2.38;;;25.50;49.90;;;;;;5049326;28;20118;-59
2021/06/01 07:30:18;;;;;;;6.47;2.17;;;26.10;48.40;;;;;;5034133;28;20055;-59
2021/06/01 07:32:44;;;;;;;4.35;2.30;;;26.00;48.80;;;;;;5066361;28;20552;-59
2021/06/01 07:35:10;;;;;;;4.72;2.15;;;26.60;48.00;;;;;;5063928;28;20060;-57
2021/06/01 07:37:36;;;;;;;2.35;1.95;;;25.80;47.10;;;;;;5070710;28;20115;-58
2021/06/01 07:40:01;;;;;;;2.10;1.95;;;25.90;47.60;;;;;;5033112;28;20123;-58
2021/06/01 07:42:27;;;;;;;4.13;2.35;;;26.40;47.60;;;;;;5064729;28;20033;-58
2021/06/01 07:44:53;;;;;;;1.90;1.80;;;27.00;46.80;;;;;;5057482;28;20788;-57
2021/06/01 07:47:18;;;;;;;2.13;1.75;;;27.40;45.40;;;;;;5071632;28;20032;-57
2021/06/01 07:49:44;;;;;;;5.20;1.90;;;27.20;45.00;;;;;;5040780;28;20063;-59
2021/06/01 07:52:09;;;;;;;3.17;1.80;;;26.40;44.90;;;;;;5067625;28;20358;-57
2021/06/01 07:54:35;;;;;;;5.57;2.00;;;26.20;45.50;;;;;;5076907;28;20437;-57
2021/06/01 07:57:01;;;;;;;2.08;1.83;;;26.80;46.30;;;;;;5079092;28;20112;-57
2021/06/01 07:59:26;;;;;;;8.93;2.10;;;27.60;43.60;;;;;;5050177;28;20352;-57
2021/06/01 08:01:52;;;;;;;3.10;1.80;;;27.00;42.80;;;;;;5064170;28;20481;-57
2021/06/01 08:04:18;;;;;;;4.55;1.90;;;26.50;44.70;;;;;;5076395;28;20035;-57
2021/06/01 08:06:43;;;;;;;2.60;2.00;;;26.70;44.20;;;;;;5077745;28;20020;-57
2021/06/01 08:09:09;;;;;;;3.75;1.90;;;27.00;43.50;;;;;;5061506;28;20027;-57
2021/06/01 08:11:36;;;;;;;5.03;1.92;;;27.80;41.70;;;;;;5068700;28;20394;-57
2021/06/01 08:14:02;;;;;;;3.20;1.70;;;27.30;42.60;;;;;;5072251;28;20023;-57
2021/06/01 08:16:28;;;;;;;3.28;1.90;;;28.10;42.00;;;;;;5072675;28;20032;-57
2021/06/01 08:19:08;;;;;;;3.83;1.98;;;28.00;40.90;;;;;;5055872;28;20024;-57
2021/06/01 08:24:18;;;;;;;5.75;1.80;;;28.70;39.90;;;;;;5063016;28;20448;-56
2021/06/01 08:26:44;;;;;;;4.55;1.58;;;28.80;39.70;;;;;;5059749;28;20111;-57
2021/06/01 08:29:11;;;;;;;2.25;1.80;;;29.60;38.40;;;;;;5048181;28;20357;-56
2021/06/01 08:31:37;;;;;;;5.32;1.80;;;29.00;38.20;;;;;;5054830;28;20078;-57
2021/06/01 08:34:02;;;;;;;4.55;1.83;;;29.10;38.60;;;;;;5063283;28;20532;-61
2021/06/01 08:36:28;;;;;;;3.60;1.70;;;28.50;38.50;;;;;;5075258;28;20036;-60
2021/06/01 08:38:54;;;;;;;2.92;1.60;;;28.80;39.00;;;;;;5059731;28;20025;-60
2021/06/01 08:41:20;;;;;;;1.77;1.58;;;28.80;36.90;;;;;;5057111;28;20126;-60
2021/06/01 08:43:47;;;;;;;1.90;1.55;;;28.00;38.30;;;;;;5069749;28;20106;-60
2021/06/01 08:46:13;;;;;;;3.58;1.70;;;28.40;38.90;;;;;;5075016;28;20038;-60
2021/06/01 08:48:40;;;;;;;3.30;1.80;;;27.70;37.60;;;;;;5052108;28;20107;-61
2021/06/01 08:51:06;;;;;;;5.40;1.60;;;27.30;38.30;;;;;;5052996;28;20031;-61
2021/06/01 08:53:35;;;;;;;5.15;1.95;;;27.80;38.30;;;;;;5058794;28;20033;-61
2021/06/01 08:56:01;;;;;;;6.22;1.92;;;28.10;37.80;;;;;;5068130;28;20025;-60
2021/06/01 08:58:27;;;;;;;1.92;1.73;;;27.80;37.90;;;;;;5052700;28;20016;-61
2021/06/01 09:00:53;;;;;;;3.60;2.03;;;27.30;39.30;;;;;;5055455;28;20055;-61
2021/06/01 09:03:23;;;;;;;2.63;1.60;;;27.60;38.10;;;;;;5069013;28;20044;-61
2021/06/01 09:06:29;;;;;;;2.25;1.70;;;27.20;38.20;;;;;;5066436;28;20032;-60
2021/06/01 09:22:40;;;;;;;5.50;1.60;;;28.20;36.60;;;;;;5066179;28;20024;-61
2021/06/01 09:25:21;;;;;;;5.60;1.73;;;28.00;36.90;;;;;;5050393;28;20033;-61
2021/06/01 09:27:52;;;;;;;3.92;1.58;;;28.20;37.90;;;;;;5058478;28;20210;-60
2021/06/01 09:30:42;;;;;;;3.35;1.40;;;27.80;36.50;;;;;;5052103;28;20033;-61
2021/06/01 09:33:14;;;;;;;2.17;1.50;;;27.90;37.10;;;;;;5061270;28;20527;-61
2021/06/01 09:35:40;;;;;;;3.00;1.42;;;27.80;37.10;;;;;;5064168;28;20238;-61
2021/06/01 09:38:06;;;;;;;2.42;1.60;;;27.50;37.00;;;;;;5060258;28;20350;-61
2021/06/01 09:40:31;;;;;;;5.50;1.70;;;27.40;37.10;;;;;;5050166;28;20047;-61
2021/06/01 09:42:57;;;;;;;4.32;1.65;;;27.60;37.30;;;;;;5070037;28;20100;-61
2021/06/01 09:45:24;;;;;;;2.47;1.88;;;28.00;37.20;;;;;;5059628;28;20055;-60
2021/06/01 09:47:56;;;;;;;23.45;2.10;;;28.70;36.90;;;;;;5062577;28;20400;-61
2021/06/01 09:50:35;;;;;;;2.58;1.70;;;29.00;34.80;;;;;;5064050;28;20466;-61
2021/06/01 09:53:26;;;;;;;2.55;1.40;;;29.00;34.60;;;;;;5061485;28;20037;-61
2021/06/01 09:55:54;;;;;;;2.95;1.70;;;28.80;35.30;;;;;;5065494;28;20516;-61
2021/06/01 09:58:30;;;;;;;4.90;1.88;;;28.10;35.90;;;;;;5063323;28;20039;-61
2021/06/01 10:00:57;;;;;;;6.38;1.77;;;28.40;35.90;;;;;;5064984;28;20032;-61
2021/06/01 10:03:26;;;;;;;3.88;1.60;;;28.50;35.50;;;;;;5069622;28;20025;-61
2021/06/01 10:05:55;;;;;;;1.70;1.52;;;28.90;34.30;;;;;;5070799;28;20048;-62
2021/06/01 10:08:26;;;;;;;3.03;1.40;;;27.70;33.90;;;;;;5058726;28;20454;-61
2021/06/01 10:10:55;;;;;;;4.68;1.50;;;27.90;35.20;;;;;;5067343;28;20025;-62
2021/06/01 10:13:24;;;;;;;1.40;1.15;;;27.20;35.30;;;;;;5051686;28;20262;-61
2021/06/01 10:15:55;;;;;;;2.85;1.50;;;27.40;36.10;;;;;;5061075;28;20355;-61
2021/06/01 10:18:22;;;;;;;2.00;1.15;;;27.60;36.00;;;;;;5049550;28;20392;-61
2021/06/01 10:20:49;;;;;;;3.10;1.58;;;28.00;36.90;;;;;;5049887;28;20060;-61
2021/06/01 10:23:22;;;;;;;9.30;1.85;;;28.00;35.10;;;;;;5052699;28;20036;-60
2021/06/01 10:25:48;;;;;;;1.75;1.45;;;27.10;34.90;;;;;;5061575;28;20034;-62
2021/06/01 10:28:22;;;;;;;3.28;1.50;;;26.90;36.60;;;;;;5066925;28;20071;-61
2021/06/01 10:30:49;;;;;;;3.67;1.40;;;27.30;34.50;;;;;;5060480;28;20036;-61
2021/06/01 10:33:18;;;;;;;2.05;1.35;;;28.10;35.60;;;;;;5059201;28;20070;-62
2021/06/01 10:36:05;;;;;;;1.73;1.52;;;28.20;34.10;;;;;;5073746;28;20031;-64
2021/06/01 10:42:31;;;;;;;5.88;2.00;;;26.80;36.60;;;;;;5067663;28;20062;-62
2021/06/01 10:50:04;;;;;;;9.98;1.77;;;29.30;35.20;;;;;;5067353;28;20086;-62
2021/06/01 10:52:30;;;;;;;2.65;1.23;;;30.00;35.70;;;;;;5065047;28;20028;-62
2021/06/01 10:54:59;;;;;;;4.63;1.45;;;29.50;34.40;;;;;;5057399;28;20029;-62
2021/06/01 10:57:58;;;;;;;1.63;1.50;;;29.50;34.30;;;;;;5071049;28;20162;-62
2021/06/01 11:03:12;;;;;;;3.97;1.58;;;29.00;34.70;;;;;;5062988;28;20062;-63
2021/06/01 11:05:57;;;;;;;5.72;1.67;;;29.00;34.50;;;;;;5060435;28;20124;-63
2021/06/01 11:08:36;;;;;;;5.90;1.60;;;29.30;35.10;;;;;;5061590;28;20043;-62
2021/06/01 11:11:33;;;;;;;4.55;1.67;;;28.70;34.80;;;;;;5051770;28;20033;-62
2021/06/01 11:14:01;;;;;;;4.57;1.63;;;28.40;36.30;;;;;;5053506;28;20066;-63
2021/06/01 11:16:53;;;;;;;3.28;1.67;;;28.20;35.90;;;;;;5067747;28;20550;-63
2021/06/01 11:19:21;;;;;;;;;;;28.30;35.90;;;;;;5054552;28;20036;-62
2021/06/01 11:21:58;;;;;;;1.80;1.40;;;28.70;35.40;;;;;;5067777;28;20246;-62
2021/06/01 11:35:12;;;;;;;4.28;1.88;;;30.00;34.30;;;;;;5051060;28;20051;-63
2021/06/01 11:37:52;;;;;;;1.92;1.70;;;29.10;35.40;;;;;;5061819;28;20024;-62
2021/06/01 11:40:27;;;;;;;2.88;1.65;;;28.30;35.20;;;;;;5066862;28;20032;-61
2021/06/01 11:43:14;;;;;;;4.20;1.80;;;28.40;36.20;;;;;;5069876;28;20111;-62
2021/06/01 11:51:11;;;;;;;4.28;1.90;;;28.40;36.60;;;;;;5072174;28;20186;-62
2021/06/01 11:54:05;;;;;;;3.40;1.80;;;28.50;36.60;;;;;;5056352;28;20558;-63
2021/06/01 12:13:34;;;;;;;2.10;1.90;;;30.80;34.20;;;;;;5074948;28;20059;-62
2021/06/01 12:18:50;;;;;;;2.67;1.67;;;30.60;34.20;;;;;;5065529;28;20048;-63
2021/06/01 12:21:33;;;;;;;3.95;1.65;;;30.20;33.40;;;;;;5068660;28;20055;-62
2021/06/01 12:24:15;;;;;;;2.30;1.45;;;29.00;34.90;;;;;;5060098;28;20411;-60
2021/06/01 12:32:18;;;;;;;5.25;1.60;;;30.90;32.90;;;;;;5067187;28;20034;-63
2021/06/01 13:19:36;;;;;;;3.70;1.55;;;30.20;33.80;;;;;;5063460;28;20067;-61
2021/06/01 13:22:45;;;;;;;5.03;1.57;;;30.10;33.60;;;;;;5063538;28;20044;-61
2021/06/01 13:39:52;;;;;;;3.15;1.40;;;31.60;33.20;;;;;;5067796;28;20057;-59
2021/06/01 13:48:08;;;;;;;3.03;1.38;;;31.00;32.80;;;;;;5060698;28;20070;-61
2021/06/01 13:55:43;;;;;;;3.55;1.52;;;31.00;32.30;;;;;;5066075;28;20044;-61
2021/06/01 14:01:20;;;;;;;2.55;1.33;;;30.20;33.50;;;;;;5057863;28;20381;-61
2021/06/01 14:36:25;;;;;;;1.85;1.48;;;31.60;32.30;;;;;;5062752;28;20078;-61
2021/06/01 15:09:46;;;;;;;2.72;1.27;;;29.60;35.20;;;;;;5070508;28;20043;-60
2021/06/01 15:49:49;;;;;;;3.08;1.55;;;29.00;34.10;;;;;;5070484;28;20082;-61
2021/06/01 15:55:12;;;;;;;2.67;1.50;;;28.10;34.90;;;;;;5071046;28;20358;-61
2021/06/01 16:44:29;;;;;;;1.70;1.60;;;27.00;36.20;;;;;;5074065;28;20381;-61
2021/06/01 17:03:26;;;;;;;2.63;1.20;;;26.30;36.10;;;;;;5073559;28;20162;-61
2021/06/01 17:06:02;;;;;;;2.22;1.20;;;26.20;36.80;;;;;;5073385;28;20029;-61
2021/06/01 17:14:02;;;;;;;1.50;1.40;;;26.20;37.10;;;;;;5073413;28;20043;-61
2021/06/01 17:16:47;;;;;;;3.10;1.20;;;26.10;38.50;;;;;;5069780;28;20029;-60
2021/06/01 17:35:14;;;;;;;2.33;1.50;;;26.00;37.70;;;;;;5073604;28;20017;-60
2021/06/01 17:37:40;;;;;;;3.17;1.67;;;26.20;37.80;;;;;;5072100;28;20024;-61
2021/06/01 17:40:10;;;;;;;2.53;1.33;;;26.10;38.10;;;;;;5073236;28;20029;-61
2021/06/01 17:42:38;;;;;;;4.05;1.80;;;26.00;39.10;;;;;;5073370;28;20048;-61
2021/06/01 17:45:05;;;;;;;5.70;1.92;;;25.90;40.70;;;;;;5073324;28;20036;-61
2021/06/01 17:47:41;;;;;;;2.35;1.90;;;26.00;41.20;;;;;;5071742;28;20409;-61
2021/06/01 17:50:08;;;;;;;5.93;2.00;;;26.10;41.90;;;;;;5071704;28;20550;-61
2021/06/01 17:52:36;;;;;;;3.92;1.70;;;26.20;42.00;;;;;;5073390;28;20017;-61
2021/06/01 17:55:03;;;;;;;4.80;1.95;;;26.20;41.00;;;;;;5073046;28;20041;-61
2021/06/01 17:57:28;;;;;;;2.20;1.70;;;26.20;41.50;;;;;;5072346;28;20032;-61
2021/06/01 17:59:55;;;;;;;4.75;2.10;;;26.20;42.10;;;;;;5071109;28;20021;-61
2021/06/01 18:02:21;;;;;;;4.88;1.80;;;26.10;41.90;;;;;;5070982;28;20040;-61
2021/06/01 18:04:50;;;;;;;6.55;2.15;;;26.00;42.50;;;;;;5071219;28;20047;-61
2021/06/01 18:07:27;;;;;;;3.45;2.15;;;25.90;43.40;;;;;;5072427;28;20027;-61
2021/06/01 19:22:45;;;;;;;1.98;1.88;;;24.20;47.90;;;;;;5071258;28;20086;-61
2021/06/01 19:25:03;;;;;;;4.60;2.08;;;24.00;48.30;;;;;;5070950;28;20064;-61
2021/06/01 19:50:44;;;;;;;3.35;2.15;;;23.30;49.40;;;;;;5070261;28;20060;-60
2021/06/01 19:52:41;;;;;;;3.28;2.38;;;23.30;48.70;;;;;;5065294;28;20044;-61
2021/06/01 19:55:08;;;;;;;3.80;2.10;;;23.40;48.30;;;;;;5069375;28;20025;-61
2021/06/01 19:57:33;;;;;;;4.35;2.70;;;23.20;48.90;;;;;;5070447;28;20021;-61
2021/06/01 19:59:59;;;;;;;5.97;2.83;;;23.10;49.10;;;;;;5070422;28;20365;-61
2021/06/01 20:02:34;;;;;;;4.35;2.67;;;23.10;49.10;;;;;;5070497;28;20437;-61
2021/06/01 20:05:04;;;;;;;3.10;2.80;;;23.20;48.80;;;;;;5070530;28;20397;-61